sensor_id;sensor_type;location;lat;lon;timestamp;pressure;altitude;pressure_sealevel;temperature;humidity
76858;BME280;65830;0.000;0.000;2023-01-01T00:01:25;101203.78;;;5.66;70.64
76858;BME280;65830;0.000;0.000;2023-01-01T00:03:51;101206.75;;;5.58;69.94
76858;BME280;65830;0.000;0.000;2023-01-01T00:06:18;101203.41;;;5.54;69.98
76858;BME280;65830;0.000;0.000;2023-01-01T00:08:43;101198.34;;;5.50;70.09
76858;BME280;65830;0.000;0.000;2023-01-01T00:11:09;101206.03;;;5.54;70.24
76858;BME280;65830;0.000;0.000;2023-01-01T00:13:35;101204.19;;;5.56;69.60
76858;BME280;65830;0.000;0.000;2023-01-01T00:18:29;101210.66;;;5.49;70.72
76858;BME280;65830;0.000;0.000;2023-01-01T00:21:11;101204.06;;;5.60;70.76
76858;BME280;65830;0.000;0.000;2023-01-01T00:23:37;101213.31;;;5.49;70.36
76858;BME280;65830;0.000;0.000;2023-01-01T00:26:20;101214.59;;;5.60;70.18
76858;BME280;65830;0.000;0.000;2023-01-01T00:28:46;101221.28;;;5.67;69.91
76858;BME280;65830;0.000;0.000;2023-01-01T00:31:13;101219.09;;;5.37;69.98
76858;BME280;65830;0.000;0.000;2023-01-01T00:33:41;101216.00;;;5.48;69.91
76858;BME280;65830;0.000;0.000;2023-01-01T00:36:10;101221.72;;;5.57;69.65
76858;BME280;65830;0.000;0.000;2023-01-01T00:38:36;101218.69;;;5.46;69.89
76858;BME280;65830;0.000;0.000;2023-01-01T00:41:02;101231.84;;;5.46;69.28
76858;BME280;65830;0.000;0.000;2023-01-01T00:43:28;101225.69;;;5.47;69.62
76858;BME280;65830;0.000;0.000;2023-01-01T00:45:54;101231.72;;;5.29;69.88
76858;BME280;65830;0.000;0.000;2023-01-01T00:48:19;101236.19;;;5.27;70.27
76858;BME280;65830;0.000;0.000;2023-01-01T00:50:45;101237.41;;;5.20;70.45
76858;BME280;65830;0.000;0.000;2023-01-01T00:53:12;101239.84;;;5.24;70.52
76858;BME280;65830;0.000;0.000;2023-01-01T00:55:38;101242.13;;;5.32;70.05
76858;BME280;65830;0.000;0.000;2023-01-01T00:58:03;101243.03;;;5.31;70.21
76858;BME280;65830;0.000;0.000;2023-01-01T01:00:29;101243.09;;;5.09;70.71
76858;BME280;65830;0.000;0.000;2023-01-01T01:02:55;101251.00;;;5.09;70.41
76858;BME280;65830;0.000;0.000;2023-01-01T01:05:20;101244.78;;;5.11;70.92
76858;BME280;65830;0.000;0.000;2023-01-01T01:07:46;101238.53;;;5.14;70.22
76858;BME280;65830;0.000;0.000;2023-01-01T01:10:11;101235.38;;;5.06;70.37
76858;BME280;65830;0.000;0.000;2023-01-01T01:12:37;101241.72;;;5.00;71.06
76858;BME280;65830;0.000;0.000;2023-01-01T01:15:03;101234.84;;;5.18;70.84
76858;BME280;65830;0.000;0.000;2023-01-01T01:17:29;101234.09;;;5.35;70.34
76858;BME280;65830;0.000;0.000;2023-01-01T01:19:54;101235.81;;;5.36;70.33
76858;BME280;65830;0.000;0.000;2023-01-01T01:22:20;101238.25;;;5.20;70.70
76858;BME280;65830;0.000;0.000;2023-01-01T01:24:45;101229.09;;;5.08;70.91
76858;BME280;65830;0.000;0.000;2023-01-01T01:27:11;101234.75;;;4.99;71.30
76858;BME280;65830;0.000;0.000;2023-01-01T01:29:36;101230.47;;;5.17;70.04
76858;BME280;65830;0.000;0.000;2023-01-01T01:32:02;101234.63;;;5.02;70.46
76858;BME280;65830;0.000;0.000;2023-01-01T01:34:27;101232.22;;;4.97;70.88
76858;BME280;65830;0.000;0.000;2023-01-01T01:36:53;101224.47;;;4.93;70.97
76858;BME280;65830;0.000;0.000;2023-01-01T01:39:19;101225.53;;;5.09;70.65
76858;BME280;65830;0.000;0.000;2023-01-01T01:41:44;101224.50;;;5.13;70.47
76858;BME280;65830;0.000;0.000;2023-01-01T01:46:54;101214.22;;;4.87;71.12
76858;BME280;65830;0.000;0.000;2023-01-01T01:49:20;101217.06;;;4.82;71.61
76858;BME280;65830;0.000;0.000;2023-01-01T01:51:50;101217.91;;;4.83;71.62
76858;BME280;65830;0.000;0.000;2023-01-01T01:54:17;101217.44;;;4.93;71.24
76858;BME280;65830;0.000;0.000;2023-01-01T01:59:10;101216.78;;;4.88;70.70
76858;BME280;65830;0.000;0.000;2023-01-01T02:01:35;101201.81;;;4.90;70.95
76858;BME280;65830;0.000;0.000;2023-01-01T02:04:01;101207.50;;;4.80;70.55
76858;BME280;65830;0.000;0.000;2023-01-01T02:06:29;101210.81;;;4.85;70.87
76858;BME280;65830;0.000;0.000;2023-01-01T02:08:58;101216.56;;;4.72;70.45
76858;BME280;65830;0.000;0.000;2023-01-01T02:11:26;101224.88;;;4.62;70.82
76858;BME280;65830;0.000;0.000;2023-01-01T02:13:51;101232.19;;;4.55;71.48
76858;BME280;65830;0.000;0.000;2023-01-01T02:16:22;101227.09;;;4.72;71.12
76858;BME280;65830;0.000;0.000;2023-01-01T02:18:59;101227.84;;;4.76;70.50
76858;BME280;65830;0.000;0.000;2023-01-01T02:21:35;101228.44;;;4.61;70.68
76858;BME280;65830;0.000;0.000;2023-01-01T02:31:39;101231.88;;;4.63;70.56
76858;BME280;65830;0.000;0.000;2023-01-01T02:34:08;101219.16;;;4.74;70.75
76858;BME280;65830;0.000;0.000;2023-01-01T02:36:37;101219.84;;;4.77;70.61
76858;BME280;65830;0.000;0.000;2023-01-01T02:39:04;101228.69;;;4.76;70.38
76858;BME280;65830;0.000;0.000;2023-01-01T02:41:42;101221.78;;;4.52;71.03
76858;BME280;65830;0.000;0.000;2023-01-01T02:44:09;101232.06;;;4.58;71.45
76858;BME280;65830;0.000;0.000;2023-01-01T02:46:35;101234.63;;;4.60;71.14
76858;BME280;65830;0.000;0.000;2023-01-01T02:49:01;101224.66;;;4.68;71.18
76858;BME280;65830;0.000;0.000;2023-01-01T02:59:39;101227.56;;;4.82;70.48
76858;BME280;65830;0.000;0.000;2023-01-01T03:10:04;101221.97;;;4.47;70.89
76858;BME280;65830;0.000;0.000;2023-01-01T03:15:39;101217.81;;;4.42;71.66
76858;BME280;65830;0.000;0.000;2023-01-01T03:20:26;101222.72;;;4.51;70.44
76858;BME280;65830;0.000;0.000;2023-01-01T03:22:54;101228.50;;;4.37;70.75
76858;BME280;65830;0.000;0.000;2023-01-01T03:25:26;101222.81;;;4.48;70.97
76858;BME280;65830;0.000;0.000;2023-01-01T03:28:04;101231.94;;;4.61;71.22
76858;BME280;65830;0.000;0.000;2023-01-01T03:30:32;101225.09;;;4.57;70.45
76858;BME280;65830;0.000;0.000;2023-01-01T03:33:00;101224.97;;;4.60;70.13
76858;BME280;65830;0.000;0.000;2023-01-01T03:35:31;101226.66;;;4.61;70.38
76858;BME280;65830;0.000;0.000;2023-01-01T03:37:59;101222.16;;;4.43;70.48
76858;BME280;65830;0.000;0.000;2023-01-01T03:40:26;101232.47;;;4.25;70.75
76858;BME280;65830;0.000;0.000;2023-01-01T03:42:54;101230.53;;;4.30;70.81
76858;BME280;65830;0.000;0.000;2023-01-01T03:45:21;101231.09;;;4.38;70.87
76858;BME280;65830;0.000;0.000;2023-01-01T03:47:49;101230.16;;;4.40;70.76
76858;BME280;65830;0.000;0.000;2023-01-01T03:50:14;101236.88;;;4.25;71.43
76858;BME280;65830;0.000;0.000;2023-01-01T03:57:41;101238.25;;;4.11;71.56
76858;BME280;65830;0.000;0.000;2023-01-01T04:00:10;101235.28;;;4.21;71.32
76858;BME280;65830;0.000;0.000;2023-01-01T04:02:42;101249.22;;;4.23;71.10
76858;BME280;65830;0.000;0.000;2023-01-01T04:05:09;101249.03;;;4.27;71.12
76858;BME280;65830;0.000;0.000;2023-01-01T04:07:35;101244.94;;;4.20;71.42
76858;BME280;65830;0.000;0.000;2023-01-01T04:10:02;101237.44;;;4.33;71.68
76858;BME280;65830;0.000;0.000;2023-01-01T04:15:09;101234.78;;;4.11;70.81
76858;BME280;65830;0.000;0.000;2023-01-01T04:17:35;101234.22;;;4.03;71.02
76858;BME280;65830;0.000;0.000;2023-01-01T04:20:00;101236.63;;;4.09;70.95
76858;BME280;65830;0.000;0.000;2023-01-01T04:22:25;101244.31;;;4.13;71.43
76858;BME280;65830;0.000;0.000;2023-01-01T04:24:51;101243.63;;;4.08;71.34
76858;BME280;65830;0.000;0.000;2023-01-01T04:27:16;101243.34;;;3.92;71.45
76858;BME280;65830;0.000;0.000;2023-01-01T04:29:42;101250.88;;;4.02;71.26
76858;BME280;65830;0.000;0.000;2023-01-01T04:32:07;101237.81;;;4.00;71.32
76858;BME280;65830;0.000;0.000;2023-01-01T04:34:33;101244.38;;;3.88;71.24
76858;BME280;65830;0.000;0.000;2023-01-01T04:36:58;101242.78;;;3.84;71.26
76858;BME280;65830;0.000;0.000;2023-01-01T04:39:24;101242.69;;;3.87;71.84
76858;BME280;65830;0.000;0.000;2023-01-01T04:41:49;101244.78;;;3.77;71.51
76858;BME280;65830;0.000;0.000;2023-01-01T04:44:15;101237.53;;;3.84;71.67
76858;BME280;65830;0.000;0.000;2023-01-01T04:46:40;101230.06;;;3.97;71.54
76858;BME280;65830;0.000;0.000;2023-01-01T04:49:06;101234.91;;;3.84;71.65
76858;BME280;65830;0.000;0.000;2023-01-01T04:51:32;101237.16;;;3.95;71.49
76858;BME280;65830;0.000;0.000;2023-01-01T04:53:58;101233.03;;;3.88;71.30
76858;BME280;65830;0.000;0.000;2023-01-01T04:56:24;101229.66;;;3.84;71.44
76858;BME280;65830;0.000;0.000;2023-01-01T04:58:49;101233.66;;;3.71;71.37
76858;BME280;65830;0.000;0.000;2023-01-01T05:01:19;101244.72;;;3.55;71.79
76858;BME280;65830;0.000;0.000;2023-01-01T05:03:45;101235.25;;;3.51;71.94
76858;BME280;65830;0.000;0.000;2023-01-01T05:06:11;101240.00;;;3.65;72.01
76858;BME280;65830;0.000;0.000;2023-01-01T05:08:37;101250.44;;;3.67;71.95
76858;BME280;65830;0.000;0.000;2023-01-01T05:11:07;101257.50;;;3.65;71.71
76858;BME280;65830;0.000;0.000;2023-01-01T05:13:34;101259.22;;;3.66;71.23
76858;BME280;65830;0.000;0.000;2023-01-01T05:16:03;101257.72;;;3.58;71.20
76858;BME280;65830;0.000;0.000;2023-01-01T05:18:29;101261.56;;;3.48;71.21
76858;BME280;65830;0.000;0.000;2023-01-01T05:20:59;101264.97;;;3.52;71.40
76858;BME280;65830;0.000;0.000;2023-01-01T05:23:24;101268.22;;;3.58;71.00
76858;BME280;65830;0.000;0.000;2023-01-01T05:25:50;101270.38;;;3.47;70.77
76858;BME280;65830;0.000;0.000;2023-01-01T05:28:15;101275.22;;;3.33;71.32
76858;BME280;65830;0.000;0.000;2023-01-01T05:30:41;101276.25;;;3.29;71.50
76858;BME280;65830;0.000;0.000;2023-01-01T05:33:06;101275.03;;;3.39;71.39
76858;BME280;65830;0.000;0.000;2023-01-01T05:35:32;101273.69;;;3.27;71.99
76858;BME280;65830;0.000;0.000;2023-01-01T05:37:57;101280.44;;;3.34;71.74
76858;BME280;65830;0.000;0.000;2023-01-01T05:40:23;101279.06;;;3.49;71.53
76858;BME280;65830;0.000;0.000;2023-01-01T05:42:48;101279.78;;;3.28;72.10
76858;BME280;65830;0.000;0.000;2023-01-01T05:45:14;101276.59;;;3.20;72.37
76858;BME280;65830;0.000;0.000;2023-01-01T05:47:39;101280.81;;;3.24;72.54
76858;BME280;65830;0.000;0.000;2023-01-01T05:50:05;101283.00;;;3.36;72.75
76858;BME280;65830;0.000;0.000;2023-01-01T05:52:31;101281.94;;;3.42;72.15
76858;BME280;65830;0.000;0.000;2023-01-01T05:54:56;101283.06;;;3.60;71.63
76858;BME280;65830;0.000;0.000;2023-01-01T05:57:22;101285.69;;;3.60;71.38
76858;BME280;65830;0.000;0.000;2023-01-01T05:59:48;101283.31;;;3.52;71.39
76858;BME280;65830;0.000;0.000;2023-01-01T06:02:14;101288.09;;;3.66;71.30
76858;BME280;65830;0.000;0.000;2023-01-01T06:04:39;101282.03;;;3.64;71.68
76858;BME280;65830;0.000;0.000;2023-01-01T06:07:06;101292.00;;;3.54;71.45
76858;BME280;65830;0.000;0.000;2023-01-01T06:09:31;101285.41;;;3.42;71.78
76858;BME280;65830;0.000;0.000;2023-01-01T06:11:57;101284.63;;;3.40;72.00
76858;BME280;65830;0.000;0.000;2023-01-01T06:14:22;101278.56;;;3.38;72.19
76858;BME280;65830;0.000;0.000;2023-01-01T06:16:48;101283.53;;;3.46;72.21
76858;BME280;65830;0.000;0.000;2023-01-01T06:19:13;101275.72;;;3.44;71.90
76858;BME280;65830;0.000;0.000;2023-01-01T06:21:39;101282.09;;;3.62;71.73
76858;BME280;65830;0.000;0.000;2023-01-01T06:24:04;101285.16;;;3.75;71.01
76858;BME280;65830;0.000;0.000;2023-01-01T06:26:30;101270.06;;;3.80;71.38
76858;BME280;65830;0.000;0.000;2023-01-01T06:28:56;101267.16;;;3.88;70.89
76858;BME280;65830;0.000;0.000;2023-01-01T06:31:22;101269.31;;;4.00;70.27
76858;BME280;65830;0.000;0.000;2023-01-01T06:33:48;101272.84;;;4.01;70.09
76858;BME280;65830;0.000;0.000;2023-01-01T06:36:15;101274.81;;;3.94;70.07
76858;BME280;65830;0.000;0.000;2023-01-01T06:38:44;101268.94;;;3.87;70.88
76858;BME280;65830;0.000;0.000;2023-01-01T06:41:11;101271.28;;;3.95;70.68
76858;BME280;65830;0.000;0.000;2023-01-01T06:43:36;101278.00;;;4.02;69.94
76858;BME280;65830;0.000;0.000;2023-01-01T06:48:29;101285.16;;;3.98;70.59
76858;BME280;65830;0.000;0.000;2023-01-01T06:50:55;101289.50;;;4.00;70.77
76858;BME280;65830;0.000;0.000;2023-01-01T06:53:24;101288.59;;;4.01;70.97
76858;BME280;65830;0.000;0.000;2023-01-01T06:55:49;101287.66;;;4.02;70.94
76858;BME280;65830;0.000;0.000;2023-01-01T06:58:15;101289.16;;;4.09;70.77
76858;BME280;65830;0.000;0.000;2023-01-01T07:00:41;101288.50;;;4.26;70.62
76858;BME280;65830;0.000;0.000;2023-01-01T07:03:10;101295.38;;;4.52;69.99
76858;BME280;65830;0.000;0.000;2023-01-01T07:05:36;101300.91;;;4.68;69.34
76858;BME280;65830;0.000;0.000;2023-01-01T07:08:02;101302.06;;;4.61;69.75
76858;BME280;65830;0.000;0.000;2023-01-01T07:10:28;101296.50;;;4.68;69.38
76858;BME280;65830;0.000;0.000;2023-01-01T07:12:53;101292.47;;;4.82;69.48
76858;BME280;65830;0.000;0.000;2023-01-01T07:15:19;101299.59;;;5.00;68.68
76858;BME280;65830;0.000;0.000;2023-01-01T07:17:44;101293.84;;;5.12;68.60
76858;BME280;65830;0.000;0.000;2023-01-01T07:20:09;101296.81;;;5.25;68.53
76858;BME280;65830;0.000;0.000;2023-01-01T07:22:35;101302.16;;;5.24;68.26
76858;BME280;65830;0.000;0.000;2023-01-01T07:25:03;101300.69;;;5.37;67.81
76858;BME280;65830;0.000;0.000;2023-01-01T07:27:28;101299.78;;;5.38;68.31
76858;BME280;65830;0.000;0.000;2023-01-01T07:29:54;101297.81;;;5.43;67.53
76858;BME280;65830;0.000;0.000;2023-01-01T07:32:19;101299.25;;;5.50;67.41
76858;BME280;65830;0.000;0.000;2023-01-01T07:34:45;101295.28;;;5.61;67.12
76858;BME280;65830;0.000;0.000;2023-01-01T07:37:13;101295.00;;;5.67;67.03
76858;BME280;65830;0.000;0.000;2023-01-01T07:39:39;101297.41;;;5.73;65.89
76858;BME280;65830;0.000;0.000;2023-01-01T07:42:04;101296.25;;;5.78;66.26
76858;BME280;65830;0.000;0.000;2023-01-01T07:44:30;101300.41;;;5.84;66.82
76858;BME280;65830;0.000;0.000;2023-01-01T07:47:05;101298.13;;;5.97;65.84
76858;BME280;65830;0.000;0.000;2023-01-01T07:49:38;101302.25;;;6.03;65.26
76858;BME280;65830;0.000;0.000;2023-01-01T07:52:03;101311.63;;;6.08;65.37
76858;BME280;65830;0.000;0.000;2023-01-01T07:54:29;101308.59;;;6.18;64.02
76858;BME280;65830;0.000;0.000;2023-01-01T07:56:55;101324.91;;;6.26;64.92
76858;BME280;65830;0.000;0.000;2023-01-01T07:59:21;101327.19;;;6.33;64.13
76858;BME280;65830;0.000;0.000;2023-01-01T08:01:48;101317.16;;;6.42;63.97
76858;BME280;65830;0.000;0.000;2023-01-01T08:04:13;101321.00;;;6.53;64.19
76858;BME280;65830;0.000;0.000;2023-01-01T08:06:39;101325.41;;;6.53;64.36
76858;BME280;65830;0.000;0.000;2023-01-01T08:09:05;101322.50;;;6.59;63.34
76858;BME280;65830;0.000;0.000;2023-01-01T08:11:30;101334.47;;;6.66;62.98
76858;BME280;65830;0.000;0.000;2023-01-01T08:13:56;101333.41;;;6.70;63.53
76858;BME280;65830;0.000;0.000;2023-01-01T08:16:21;101326.09;;;6.75;64.07
76858;BME280;65830;0.000;0.000;2023-01-01T08:18:48;101338.16;;;6.81;63.51
76858;BME280;65830;0.000;0.000;2023-01-01T08:21:13;101331.59;;;6.90;63.03
76858;BME280;65830;0.000;0.000;2023-01-01T08:23:39;101335.56;;;6.99;62.88
76858;BME280;65830;0.000;0.000;2023-01-01T08:26:04;101333.75;;;6.99;62.26
76858;BME280;65830;0.000;0.000;2023-01-01T08:28:30;101337.53;;;7.12;62.77
76858;BME280;65830;0.000;0.000;2023-01-01T08:30:56;101348.06;;;7.12;62.95
76858;BME280;65830;0.000;0.000;2023-01-01T08:33:21;101341.34;;;7.24;62.26
76858;BME280;65830;0.000;0.000;2023-01-01T08:35:50;101343.75;;;7.29;62.05
76858;BME280;65830;0.000;0.000;2023-01-01T08:38:16;101345.28;;;7.33;61.75
76858;BME280;65830;0.000;0.000;2023-01-01T08:40:41;101346.00;;;7.36;61.96
76858;BME280;65830;0.000;0.000;2023-01-01T08:43:07;101343.28;;;7.38;61.47
76858;BME280;65830;0.000;0.000;2023-01-01T08:45:32;101341.25;;;7.43;61.26
76858;BME280;65830;0.000;0.000;2023-01-01T08:47:58;101341.50;;;7.56;61.78
76858;BME280;65830;0.000;0.000;2023-01-01T08:50:24;101337.91;;;7.57;61.97
76858;BME280;65830;0.000;0.000;2023-01-01T08:52:50;101338.47;;;7.81;61.18
76858;BME280;65830;0.000;0.000;2023-01-01T08:55:15;101333.25;;;7.80;59.96
76858;BME280;65830;0.000;0.000;2023-01-01T08:57:41;101327.13;;;7.79;60.10
76858;BME280;65830;0.000;0.000;2023-01-01T09:00:09;101329.59;;;7.82;60.56
76858;BME280;65830;0.000;0.000;2023-01-01T09:02:35;101315.81;;;7.93;60.00
76858;BME280;65830;0.000;0.000;2023-01-01T09:05:00;101327.31;;;7.92;60.55
76858;BME280;65830;0.000;0.000;2023-01-01T09:07:26;101319.69;;;8.03;60.36
76858;BME280;65830;0.000;0.000;2023-01-01T09:09:51;101307.75;;;8.12;59.77
76858;BME280;65830;0.000;0.000;2023-01-01T09:12:17;101310.25;;;8.15;59.91
76858;BME280;65830;0.000;0.000;2023-01-01T09:14:45;101310.19;;;8.32;60.14
76858;BME280;65830;0.000;0.000;2023-01-01T09:17:11;101311.16;;;8.63;58.97
76858;BME280;65830;0.000;0.000;2023-01-01T09:19:36;101307.09;;;8.40;59.56
76858;BME280;65830;0.000;0.000;2023-01-01T09:22:02;101296.84;;;8.34;59.20
76858;BME280;65830;0.000;0.000;2023-01-01T09:24:27;101287.69;;;8.57;59.44
76858;BME280;65830;0.000;0.000;2023-01-01T09:26:52;101288.44;;;8.59;58.91
76858;BME280;65830;0.000;0.000;2023-01-01T09:29:18;101281.88;;;8.66;59.33
76858;BME280;65830;0.000;0.000;2023-01-01T09:31:45;101279.56;;;8.60;58.81
76858;BME280;65830;0.000;0.000;2023-01-01T09:34:10;101277.44;;;8.67;59.08
76858;BME280;65830;0.000;0.000;2023-01-01T09:36:36;101278.06;;;9.02;58.09
76858;BME280;65830;0.000;0.000;2023-01-01T09:39:01;101273.03;;;8.82;58.17
76858;BME280;65830;0.000;0.000;2023-01-01T09:41:49;101267.66;;;8.83;58.55
76858;BME280;65830;0.000;0.000;2023-01-01T09:46:45;101269.53;;;8.97;58.29
76858;BME280;65830;0.000;0.000;2023-01-01T09:49:17;101265.06;;;8.98;57.61
76858;BME280;65830;0.000;0.000;2023-01-01T09:51:47;101261.81;;;9.08;57.95
76858;BME280;65830;0.000;0.000;2023-01-01T09:54:20;101251.03;;;9.11;57.76
76858;BME280;65830;0.000;0.000;2023-01-01T09:56:50;101241.94;;;9.15;57.99
76858;BME280;65830;0.000;0.000;2023-01-01T09:59:19;101261.03;;;9.37;57.65
76858;BME280;65830;0.000;0.000;2023-01-01T10:14:54;101228.13;;;9.69;56.46
76858;BME280;65830;0.000;0.000;2023-01-01T10:17:37;101238.31;;;9.61;56.65
76858;BME280;65830;0.000;0.000;2023-01-01T10:20:06;101238.34;;;9.90;56.22
76858;BME280;65830;0.000;0.000;2023-01-01T10:22:36;101232.00;;;10.07;55.54
76858;BME280;65830;0.000;0.000;2023-01-01T10:27:31;101222.50;;;10.03;56.25
76858;BME280;65830;0.000;0.000;2023-01-01T10:29:59;101221.91;;;10.12;56.10
76858;BME280;65830;0.000;0.000;2023-01-01T10:32:30;101216.22;;;10.18;55.91
76858;BME280;65830;0.000;0.000;2023-01-01T10:34:56;101212.63;;;10.33;55.84
76858;BME280;65830;0.000;0.000;2023-01-01T10:37:22;101215.38;;;10.59;56.81
76858;BME280;65830;0.000;0.000;2023-01-01T10:39:48;101218.22;;;10.56;56.16
76858;BME280;65830;0.000;0.000;2023-01-01T10:42:14;101216.44;;;10.57;55.54
76858;BME280;65830;0.000;0.000;2023-01-01T10:44:40;101218.97;;;10.85;55.21
76858;BME280;65830;0.000;0.000;2023-01-01T10:47:39;101210.66;;;10.90;54.93
76858;BME280;65830;0.000;0.000;2023-01-01T10:49:58;101201.16;;;11.00;54.66
76858;BME280;65830;0.000;0.000;2023-01-01T10:52:42;101203.84;;;11.26;54.71
76858;BME280;65830;0.000;0.000;2023-01-01T10:55:19;101194.25;;;11.49;54.32
76858;BME280;65830;0.000;0.000;2023-01-01T10:57:45;101199.56;;;12.24;54.94
76858;BME280;65830;0.000;0.000;2023-01-01T11:02:40;101193.88;;;13.13;53.54
76858;BME280;65830;0.000;0.000;2023-01-01T11:07:40;101188.38;;;13.38;48.27
76858;BME280;65830;0.000;0.000;2023-01-01T11:10:11;101184.25;;;13.57;48.75
76858;BME280;65830;0.000;0.000;2023-01-01T11:12:39;101180.69;;;14.13;48.01
76858;BME280;65830;0.000;0.000;2023-01-01T11:15:05;101174.22;;;14.91;45.39
76858;BME280;65830;0.000;0.000;2023-01-01T11:17:31;101179.28;;;15.98;43.86
76858;BME280;65830;0.000;0.000;2023-01-01T11:19:58;101170.22;;;18.10;40.13
76858;BME280;65830;0.000;0.000;2023-01-01T11:22:40;101169.53;;;19.76;35.03
76858;BME280;65830;0.000;0.000;2023-01-01T11:27:44;101174.47;;;21.70;31.27
76858;BME280;65830;0.000;0.000;2023-01-01T11:30:23;101158.56;;;22.84;32.96
76858;BME280;65830;0.000;0.000;2023-01-01T11:32:50;101162.78;;;25.13;28.90
76858;BME280;65830;0.000;0.000;2023-01-01T11:35:21;101158.78;;;26.40;27.61
76858;BME280;65830;0.000;0.000;2023-01-01T11:37:48;101152.81;;;26.58;26.19
76858;BME280;65830;0.000;0.000;2023-01-01T11:40:16;101150.25;;;26.70;26.50
76858;BME280;65830;0.000;0.000;2023-01-01T11:42:46;101155.09;;;26.68;25.63
76858;BME280;65830;0.000;0.000;2023-01-01T11:45:23;101150.09;;;26.78;26.30
76858;BME280;65830;0.000;0.000;2023-01-01T11:47:50;101145.00;;;27.28;25.47
76858;BME280;65830;0.000;0.000;2023-01-01T11:50:24;101140.78;;;27.46;25.63
76858;BME280;65830;0.000;0.000;2023-01-01T11:52:51;101136.84;;;28.25;24.66
76858;BME280;65830;0.000;0.000;2023-01-01T11:58:05;101140.81;;;28.29;22.79
76858;BME280;65830;0.000;0.000;2023-01-01T12:00:35;101131.41;;;28.82;23.92
76858;BME280;65830;0.000;0.000;2023-01-01T12:03:14;101130.31;;;29.08;23.46
76858;BME280;65830;0.000;0.000;2023-01-01T12:05:49;101121.16;;;28.46;24.10
76858;BME280;65830;0.000;0.000;2023-01-01T12:08:18;101127.56;;;28.65;22.93
76858;BME280;65830;0.000;0.000;2023-01-01T12:10:50;101124.75;;;28.46;23.88
76858;BME280;65830;0.000;0.000;2023-01-01T12:13:21;101119.81;;;29.05;23.62
76858;BME280;65830;0.000;0.000;2023-01-01T12:20:51;101116.66;;;28.58;24.36
76858;BME280;65830;0.000;0.000;2023-01-01T12:23:19;101106.66;;;28.77;23.61
76858;BME280;65830;0.000;0.000;2023-01-01T12:25:45;101107.06;;;27.85;23.19
76858;BME280;65830;0.000;0.000;2023-01-01T12:31:27;101097.69;;;26.49;24.71
76858;BME280;65830;0.000;0.000;2023-01-01T12:33:51;101092.72;;;25.71;26.15
76858;BME280;65830;0.000;0.000;2023-01-01T12:41:54;101094.38;;;25.24;28.07
76858;BME280;65830;0.000;0.000;2023-01-01T12:50:13;101092.25;;;26.56;25.73
76858;BME280;65830;0.000;0.000;2023-01-01T12:57:48;101084.25;;;27.01;25.07
76858;BME280;65830;0.000;0.000;2023-01-01T13:00:17;101091.84;;;26.86;26.13
76858;BME280;65830;0.000;0.000;2023-01-01T13:03:05;101095.50;;;27.38;24.80
76858;BME280;65830;0.000;0.000;2023-01-01T13:05:36;101085.97;;;27.61;23.93
76858;BME280;65830;0.000;0.000;2023-01-01T13:08:02;101083.84;;;27.69;24.46
76858;BME280;65830;0.000;0.000;2023-01-01T13:10:29;101085.41;;;27.97;23.82
76858;BME280;65830;0.000;0.000;2023-01-01T13:12:55;101086.72;;;27.88;24.27
76858;BME280;65830;0.000;0.000;2023-01-01T13:18:44;101094.91;;;27.29;24.86
76858;BME280;65830;0.000;0.000;2023-01-01T13:21:17;101090.72;;;27.20;24.79
76858;BME280;65830;0.000;0.000;2023-01-01T13:23:45;101089.34;;;26.71;25.38
76858;BME280;65830;0.000;0.000;2023-01-01T13:37:00;101099.50;;;24.34;28.55
76858;BME280;65830;0.000;0.000;2023-01-01T13:45:03;101103.44;;;22.99;30.81
76858;BME280;65830;0.000;0.000;2023-01-01T13:47:38;101095.13;;;21.15;32.73
76858;BME280;65830;0.000;0.000;2023-01-01T13:50:29;101102.91;;;20.03;34.93
76858;BME280;65830;0.000;0.000;2023-01-01T13:53:03;101089.78;;;19.15;36.29
76858;BME280;65830;0.000;0.000;2023-01-01T14:00:23;101096.25;;;17.98;38.59
76858;BME280;65830;0.000;0.000;2023-01-01T14:02:51;101098.00;;;17.24;39.94
76858;BME280;65830;0.000;0.000;2023-01-01T14:07:54;101107.41;;;16.81;41.15
76858;BME280;65830;0.000;0.000;2023-01-01T14:12:45;101100.56;;;16.49;42.23
76858;BME280;65830;0.000;0.000;2023-01-01T14:17:49;101097.88;;;16.10;42.79
76858;BME280;65830;0.000;0.000;2023-01-01T14:20:16;101105.00;;;15.80;43.59
76858;BME280;65830;0.000;0.000;2023-01-01T14:22:43;101103.75;;;15.84;43.59
76858;BME280;65830;0.000;0.000;2023-01-01T14:25:13;101099.53;;;15.92;43.46
76858;BME280;65830;0.000;0.000;2023-01-01T14:27:39;101103.03;;;15.52;44.73
76858;BME280;65830;0.000;0.000;2023-01-01T14:30:13;101096.19;;;15.59;44.37
76858;BME280;65830;0.000;0.000;2023-01-01T14:32:39;101100.28;;;15.22;45.12
76858;BME280;65830;0.000;0.000;2023-01-01T14:35:11;101103.75;;;15.13;45.33
76858;BME280;65830;0.000;0.000;2023-01-01T14:37:38;101105.25;;;15.06;45.71
76858;BME280;65830;0.000;0.000;2023-01-01T14:40:46;101106.47;;;15.23;45.37
76858;BME280;65830;0.000;0.000;2023-01-01T14:42:54;101112.66;;;15.02;45.71
76858;BME280;65830;0.000;0.000;2023-01-01T14:45:20;101119.31;;;15.08;45.56
76858;BME280;65830;0.000;0.000;2023-01-01T14:47:47;101110.41;;;14.98;46.11
76858;BME280;65830;0.000;0.000;2023-01-01T14:50:25;101116.63;;;14.77;46.40
76858;BME280;65830;0.000;0.000;2023-01-01T14:53:12;101118.75;;;14.62;47.05
76858;BME280;65830;0.000;0.000;2023-01-01T14:55:41;101121.28;;;14.64;46.77
76858;BME280;65830;0.000;0.000;2023-01-01T14:58:10;101114.88;;;14.55;47.21
76858;BME280;65830;0.000;0.000;2023-01-01T15:00:36;101115.56;;;14.04;48.54
76858;BME280;65830;0.000;0.000;2023-01-01T15:03:15;101111.47;;;13.88;48.68
76858;BME280;65830;0.000;0.000;2023-01-01T15:05:41;101112.69;;;13.96;48.90
76858;BME280;65830;0.000;0.000;2023-01-01T15:08:20;101110.53;;;13.78;49.00
76858;BME280;65830;0.000;0.000;2023-01-01T15:10:47;101112.75;;;13.50;49.53
76858;BME280;65830;0.000;0.000;2023-01-01T15:13:20;101112.28;;;13.34;50.46
76858;BME280;65830;0.000;0.000;2023-01-01T15:15:47;101112.75;;;13.62;49.33
76858;BME280;65830;0.000;0.000;2023-01-01T15:20:57;101109.97;;;13.41;49.87
76858;BME280;65830;0.000;0.000;2023-01-01T15:23:23;101110.03;;;13.05;50.72
76858;BME280;65830;0.000;0.000;2023-01-01T15:25:48;101111.63;;;13.19;50.68